createdAt,value
2022-09-10T00:01:36.417Z,8.80
2022-09-10T00:04:08.736Z,8.80
2022-09-10T00:06:38.993Z,8.80
2022-09-10T00:09:07.518Z,8.80
2022-09-10T00:11:35.667Z,8.80
2022-09-10T00:14:05.313Z,8.80
2022-09-10T00:16:33.591Z,8.70
2022-09-10T00:19:02.306Z,8.70
2022-09-10T00:21:30.318Z,8.70
2022-09-10T00:23:58.258Z,8.60
2022-09-10T00:26:31.955Z,8.60
2022-09-10T00:29:02.752Z,8.60
2022-09-10T00:31:32.269Z,8.50
2022-09-10T00:34:01.301Z,8.50
2022-09-10T00:36:33.184Z,8.60
2022-09-10T00:39:04.085Z,8.50
2022-09-10T00:41:33.784Z,8.50
2022-09-10T00:44:04.246Z,8.60
2022-09-10T00:46:50.391Z,8.50
2022-09-10T00:49:21.766Z,8.40
2022-09-10T00:51:52.672Z,8.40
2022-09-10T00:54:24.519Z,8.40
2022-09-10T00:56:54.333Z,8.40
2022-09-10T00:59:26.612Z,8.40
2022-09-10T01:01:56.059Z,8.40
2022-09-10T01:04:23.854Z,8.30
2022-09-10T01:06:52.690Z,8.30
2022-09-10T01:09:24.244Z,8.40
2022-09-10T01:12:10.649Z,8.40
2022-09-10T01:15:30.922Z,8.40
2022-09-10T01:17:58.652Z,8.30
2022-09-10T01:21:05.587Z,8.40
2022-09-10T01:23:42.178Z,8.30
2022-09-10T01:26:43.613Z,8.30
2022-09-10T01:29:21.471Z,8.30
2022-09-10T01:31:59.310Z,8.20
2022-09-10T01:34:46.858Z,8.10
2022-09-10T01:37:21.913Z,8.10
2022-09-10T01:39:52.617Z,8.10
2022-09-10T01:42:21.347Z,8.10
2022-09-10T01:44:51.275Z,8.00
2022-09-10T01:47:59.678Z,8.00
2022-09-10T01:50:46.428Z,8.00
2022-09-10T01:53:20.242Z,7.90
2022-09-10T01:55:57.370Z,7.90
2022-09-10T01:58:37.114Z,8.00
2022-09-10T02:01:13.828Z,7.90
2022-09-10T02:03:45.085Z,8.00
2022-09-10T02:06:16.615Z,7.90
2022-09-10T02:08:47.386Z,7.90
2022-09-10T02:11:15.470Z,7.80
2022-09-10T02:13:48.126Z,7.80
2022-09-10T02:16:34.723Z,7.70
2022-09-10T02:19:03.644Z,7.80
2022-09-10T02:21:32.850Z,7.80
2022-09-10T02:24:06.651Z,7.70
2022-09-10T02:26:38.455Z,7.70
2022-09-10T02:29:08.675Z,7.50
2022-09-10T02:31:36.721Z,7.50
2022-09-10T02:34:04.873Z,7.60
2022-09-10T02:36:32.751Z,7.60
2022-09-10T02:39:03.954Z,7.50
2022-09-10T02:41:34.508Z,7.50
2022-09-10T02:44:04.635Z,7.40
2022-09-10T02:46:33.081Z,7.50
2022-09-10T02:49:00.704Z,7.50
2022-09-10T02:51:31.316Z,7.50
2022-09-10T02:53:59.657Z,7.50
2022-09-10T02:56:27.409Z,7.50
2022-09-10T02:58:55.259Z,7.50
2022-09-10T03:01:25.433Z,7.40
2022-09-10T03:04:01.165Z,7.40
2022-09-10T03:06:30.460Z,7.50
2022-09-10T03:08:58.961Z,7.40
2022-09-10T03:11:27.818Z,7.40
2022-09-10T03:13:58.169Z,7.30
2022-09-10T03:16:26.363Z,7.30
2022-09-10T03:18:54.051Z,7.30
2022-09-10T03:21:25.396Z,7.30
2022-09-10T03:23:54.363Z,7.30
2022-09-10T03:26:31.118Z,7.30
2022-09-10T03:28:59.118Z,7.30
2022-09-10T03:31:29.785Z,7.30
2022-09-10T03:33:59.963Z,7.30
2022-09-10T03:36:34.440Z,7.30
2022-09-10T03:39:02.353Z,7.30
2022-09-10T03:41:32.249Z,7.20
2022-09-10T03:44:01.371Z,7.20
2022-09-10T03:46:29.108Z,7.20
2022-09-10T03:49:02.731Z,7.10
2022-09-10T03:51:34.574Z,7.10
2022-09-10T03:54:03.515Z,7.10
2022-09-10T03:56:32.955Z,7.00
2022-09-10T03:59:01.315Z,7.00
2022-09-10T04:01:29.756Z,7.00
2022-09-10T04:03:59.499Z,7.00
2022-09-10T04:06:29.202Z,7.10
2022-09-10T04:08:56.952Z,7.10
2022-09-10T04:11:27.975Z,7.10
2022-09-10T04:13:57.600Z,7.10
2022-09-10T04:16:28.136Z,7.10
2022-09-10T04:18:56.395Z,7.10
2022-09-10T04:21:24.873Z,7.10
2022-09-10T04:24:01.059Z,7.10
2022-09-10T04:26:29.788Z,7.10
2022-09-10T04:28:57.470Z,7.00
2022-09-10T04:31:25.484Z,7.10
2022-09-10T04:33:56.964Z,7.00
2022-09-10T04:36:27.088Z,7.00
2022-09-10T04:38:55.000Z,7.00
2022-09-10T04:41:22.787Z,7.00
2022-09-10T04:43:50.500Z,7.00
2022-09-10T04:46:18.316Z,7.00
2022-09-10T04:48:47.782Z,7.10
2022-09-10T04:51:19.592Z,7.10
2022-09-10T04:53:49.298Z,7.10
2022-09-10T04:56:18.359Z,7.10
2022-09-10T04:58:47.233Z,7.10
2022-09-10T05:01:15.462Z,7.10
2022-09-10T05:03:45.151Z,7.10
2022-09-10T05:06:13.395Z,7.10
2022-09-10T05:08:41.600Z,7.10
2022-09-10T05:11:10.489Z,7.10
2022-09-10T05:13:38.305Z,6.90
2022-09-10T05:16:08.036Z,6.90
2022-09-10T05:18:36.062Z,6.90
2022-09-10T05:21:05.615Z,6.90
2022-09-10T05:23:34.779Z,6.90
2022-09-10T05:26:02.881Z,6.90
2022-09-10T05:28:31.313Z,6.90
2022-09-10T05:30:59.122Z,6.90
2022-09-10T05:33:28.851Z,6.90
2022-09-10T05:35:56.574Z,6.90
2022-09-10T05:38:26.313Z,6.80
2022-09-10T05:40:54.617Z,6.90
2022-09-10T05:43:25.547Z,7.00
2022-09-10T05:45:54.753Z,7.10
2022-09-10T05:48:23.120Z,6.90
2022-09-10T05:50:51.356Z,7.00
2022-09-10T05:53:18.918Z,7.00
2022-09-10T05:55:46.643Z,7.00
2022-09-10T05:58:16.490Z,7.00
2022-09-10T06:00:45.715Z,7.00
2022-09-10T06:03:16.997Z,7.00
2022-09-10T06:05:52.275Z,7.00
2022-09-10T06:08:28.744Z,7.10
2022-09-10T06:11:05.433Z,7.10
2022-09-10T06:13:46.132Z,7.20
2022-09-10T06:16:15.158Z,7.20
2022-09-10T06:18:45.668Z,7.30
2022-09-10T06:21:19.143Z,7.30
2022-09-10T06:23:54.518Z,7.30
2022-09-10T06:26:25.039Z,7.30
2022-09-10T06:28:57.105Z,7.40
2022-09-10T06:31:25.487Z,7.50
2022-09-10T06:33:54.390Z,7.50
2022-09-10T06:36:25.566Z,7.50
2022-09-10T06:38:54.251Z,7.50
2022-09-10T06:41:22.597Z,7.60
2022-09-10T06:43:55.299Z,7.60
2022-09-10T06:47:19.605Z,7.70
2022-09-10T06:49:25.217Z,7.70
2022-09-10T06:51:54.764Z,7.70
2022-09-10T06:54:28.472Z,7.70
2022-09-10T06:57:01.655Z,7.80
2022-09-10T06:59:35.092Z,7.90
2022-09-10T07:02:03.422Z,7.90
2022-09-10T07:04:32.181Z,8.00
2022-09-10T07:07:03.292Z,8.10
2022-09-10T07:09:32.604Z,8.20
2022-09-10T07:12:05.019Z,8.30
2022-09-10T07:14:36.336Z,8.30
2022-09-10T07:17:07.485Z,8.40
2022-09-10T07:19:37.969Z,8.40
2022-09-10T07:22:12.690Z,8.50
2022-09-10T07:24:40.807Z,8.60
2022-09-10T07:27:12.125Z,8.60
2022-09-10T07:29:43.030Z,8.70
2022-09-10T07:32:17.098Z,8.80
2022-09-10T07:34:46.907Z,8.80
2022-09-10T07:37:18.287Z,8.90
2022-09-10T07:39:47.563Z,9.00
2022-09-10T07:42:16.657Z,9.10
2022-09-10T07:44:46.005Z,9.20
2022-09-10T07:47:13.713Z,9.30
2022-09-10T07:49:41.628Z,9.30
2022-09-10T07:52:09.502Z,9.30
2022-09-10T07:54:44.813Z,9.40
2022-09-10T07:57:12.631Z,9.50
2022-09-10T07:59:40.844Z,9.60
2022-09-10T08:02:15.339Z,9.70
2022-09-10T08:04:47.312Z,9.80
2022-09-10T08:07:17.482Z,9.90
2022-09-10T08:09:46.160Z,10.00
2022-09-10T08:12:18.012Z,10.00
2022-09-10T08:14:47.829Z,10.10
2022-09-10T08:17:16.873Z,10.10
2022-09-10T08:19:46.007Z,10.20
2022-09-10T08:22:14.554Z,10.20
2022-09-10T08:24:52.944Z,10.30
2022-09-10T08:27:23.938Z,10.40
2022-09-10T08:29:53.793Z,10.40
2022-09-10T08:32:22.130Z,10.50
2022-09-10T08:34:50.163Z,10.60
2022-09-10T08:37:19.291Z,10.70
2022-09-10T08:39:47.147Z,10.90
2022-09-10T08:42:24.973Z,10.90
2022-09-10T08:44:55.334Z,11.00
2022-09-10T08:47:46.351Z,11.00
2022-09-10T08:50:30.221Z,11.10
2022-09-10T08:53:30.187Z,11.20
2022-09-10T08:56:06.265Z,11.40
2022-09-10T08:58:50.983Z,11.50
2022-09-10T09:01:25.665Z,11.40
2022-09-10T09:03:57.623Z,11.50
2022-09-10T09:06:50.626Z,11.60
2022-09-10T09:09:22.180Z,11.60
2022-09-10T09:12:03.369Z,11.60
2022-09-10T09:14:40.787Z,11.60
2022-09-10T09:17:35.521Z,11.80
2022-09-10T09:20:18.504Z,11.90
2022-09-10T09:22:55.359Z,12.00
2022-09-10T09:25:32.718Z,12.00
2022-09-10T09:28:06.144Z,12.00
2022-09-10T09:30:49.599Z,12.00
2022-09-10T09:33:25.291Z,11.90
2022-09-10T09:36:05.375Z,12.10
2022-09-10T09:38:45.468Z,12.10
2022-09-10T09:41:18.803Z,12.30
2022-09-10T09:43:57.609Z,12.40
2022-09-10T09:46:27.273Z,12.40
2022-09-10T09:49:02.002Z,12.50
2022-09-10T09:51:35.841Z,12.50
2022-09-10T09:54:56.714Z,12.50
2022-09-10T09:57:18.461Z,12.70
2022-09-10T09:59:49.024Z,12.70
2022-09-10T10:02:16.815Z,12.80
2022-09-10T10:05:07.814Z,12.80
2022-09-10T10:07:36.830Z,12.80
2022-09-10T10:10:07.836Z,13.00
2022-09-10T10:12:50.144Z,12.90
2022-09-10T10:15:37.861Z,13.00
2022-09-10T10:18:24.393Z,13.10
2022-09-10T10:21:12.493Z,13.20
2022-09-10T10:23:40.827Z,13.30
2022-09-10T10:26:20.687Z,13.40
2022-09-10T10:28:49.857Z,13.50
2022-09-10T10:31:18.545Z,13.40
2022-09-10T10:34:03.077Z,13.60
2022-09-10T10:37:06.631Z,13.50
2022-09-10T10:39:54.322Z,13.50
2022-09-10T10:42:40.015Z,13.70
2022-09-10T10:45:45.233Z,13.80
2022-09-10T10:48:36.047Z,13.80
2022-09-10T10:51:12.299Z,13.90
2022-09-10T10:53:54.687Z,14.00
2022-09-10T10:56:42.354Z,14.10
2022-09-10T10:59:45.257Z,14.30
2022-09-10T11:02:19.291Z,14.20
2022-09-10T11:04:52.223Z,14.20
2022-09-10T11:07:42.398Z,14.20
2022-09-10T11:10:23.131Z,14.40
2022-09-10T11:13:19.281Z,14.40
2022-09-10T11:16:06.072Z,14.50
2022-09-10T11:18:43.929Z,14.70
2022-09-10T11:21:23.764Z,14.70
2022-09-10T11:24:24.484Z,14.70
2022-09-10T11:26:57.989Z,14.80
2022-09-10T11:29:42.028Z,14.80
2022-09-10T11:32:27.337Z,15.00
2022-09-10T11:35:15.537Z,15.10
2022-09-10T11:38:11.153Z,14.90
2022-09-10T11:40:59.136Z,14.90
2022-09-10T11:43:30.961Z,15.10
2022-09-10T11:46:03.650Z,15.20
2022-09-10T11:48:44.367Z,15.20
2022-09-10T11:51:26.653Z,15.30
2022-09-10T11:53:55.273Z,15.20
2022-09-10T11:56:42.943Z,15.20
2022-09-10T11:59:36.993Z,15.30
2022-09-10T12:02:34.828Z,15.40
2022-09-10T12:05:21.743Z,15.60
2022-09-10T12:08:29.135Z,15.70
2022-09-10T12:11:16.458Z,15.80
2022-09-10T12:13:47.282Z,15.80
2022-09-10T12:16:31.615Z,15.70
2022-09-10T12:19:02.792Z,15.80
2022-09-10T12:21:41.728Z,15.90
2022-09-10T12:24:34.603Z,16.00
2022-09-10T12:27:05.600Z,16.00
2022-09-10T12:29:41.139Z,16.10
2022-09-10T12:32:20.869Z,16.20
2022-09-10T12:35:09.070Z,16.30
2022-09-10T12:37:39.950Z,16.30
2022-09-10T12:40:26.119Z,16.30
2022-09-10T12:43:00.569Z,16.30
2022-09-10T12:46:03.267Z,16.30
2022-09-10T12:48:33.330Z,16.40
2022-09-10T12:51:24.951Z,16.50
2022-09-10T12:54:07.066Z,16.40
2022-09-10T12:57:04.969Z,16.50
2022-09-10T13:00:13.379Z,16.60
2022-09-10T13:03:09.125Z,16.60
2022-09-10T13:05:57.127Z,16.70
2022-09-10T13:08:46.317Z,16.80
2022-09-10T13:11:17.229Z,16.80
2022-09-10T13:13:49.160Z,16.80
2022-09-10T13:16:21.418Z,16.80
2022-09-10T13:18:56.833Z,16.80
2022-09-10T13:21:25.734Z,17.00
2022-09-10T13:23:55.131Z,16.80
2022-09-10T13:26:32.556Z,16.60
2022-09-10T13:29:30.034Z,16.60
2022-09-10T13:32:01.642Z,16.80
2022-09-10T13:34:52.911Z,16.90
2022-09-10T13:37:44.620Z,17.00
2022-09-10T13:40:32.105Z,16.90
2022-09-10T13:43:19.388Z,16.80
2022-09-10T13:46:01.396Z,16.80
2022-09-10T13:48:40.379Z,16.80
2022-09-10T13:51:31.423Z,16.80
2022-09-10T13:54:12.992Z,16.70
2022-09-10T13:56:44.492Z,16.70
2022-09-10T13:59:20.354Z,16.90
2022-09-10T14:01:55.430Z,16.90
2022-09-10T14:04:43.145Z,16.90
2022-09-10T14:07:25.870Z,16.80
2022-09-10T14:10:02.997Z,16.60
2022-09-10T14:12:35.125Z,16.60
2022-09-10T14:15:06.749Z,16.50
2022-09-10T14:17:44.109Z,16.40
2022-09-10T14:20:37.982Z,16.50
2022-09-10T14:23:15.354Z,16.50
2022-09-10T14:25:45.810Z,16.30
2022-09-10T14:28:16.606Z,16.20
2022-09-10T14:30:49.260Z,16.00
2022-09-10T14:33:29.237Z,15.90
2022-09-10T14:36:15.162Z,15.80
2022-09-10T14:38:43.558Z,15.70
2022-09-10T14:41:25.400Z,15.50
2022-09-10T14:44:24.891Z,15.40
2022-09-10T14:46:59.187Z,15.30
2022-09-10T14:49:32.953Z,15.20
2022-09-10T14:52:02.310Z,15.10
2022-09-10T14:54:32.782Z,15.10
2022-09-10T14:57:28.502Z,15.00
2022-09-10T14:59:57.917Z,15.00
2022-09-10T15:02:28.820Z,15.00
2022-09-10T15:04:56.546Z,14.90
2022-09-10T15:07:24.254Z,14.80
2022-09-10T15:09:54.064Z,14.80
2022-09-10T15:12:32.352Z,14.90
2022-09-10T15:15:00.258Z,14.80
2022-09-10T15:17:27.950Z,14.80
2022-09-10T15:19:56.251Z,14.80
2022-09-10T15:22:28.336Z,14.80
2022-09-10T15:25:11.914Z,14.70
2022-09-10T15:27:39.752Z,14.80
2022-09-10T15:30:08.078Z,14.70
2022-09-10T15:32:37.159Z,14.70
2022-09-10T15:35:05.477Z,14.60
2022-09-10T15:37:33.766Z,14.60
2022-09-10T15:40:01.476Z,14.60
2022-09-10T15:42:30.454Z,14.60
2022-09-10T15:44:58.051Z,14.50
2022-09-10T15:47:27.252Z,14.40
2022-09-10T15:49:54.779Z,14.30
2022-09-10T15:52:22.502Z,14.30
2022-09-10T15:54:50.115Z,14.30
2022-09-10T15:57:17.902Z,14.20
2022-09-10T15:59:46.123Z,14.10
2022-09-10T16:02:13.828Z,14.00
2022-09-10T16:04:43.162Z,14.00
2022-09-10T16:07:13.677Z,14.00
2022-09-10T16:09:44.622Z,14.00
2022-09-10T16:12:12.615Z,14.00
2022-09-10T16:14:40.167Z,14.00
2022-09-10T16:17:10.772Z,13.90
2022-09-10T16:19:40.096Z,13.80
2022-09-10T16:22:08.424Z,13.80
2022-09-10T16:24:36.134Z,13.80
2022-09-10T16:27:04.106Z,13.70
2022-09-10T16:29:32.920Z,13.70
2022-09-10T16:32:00.500Z,13.70
2022-09-10T16:34:29.496Z,13.70
2022-09-10T16:36:58.686Z,13.60
2022-09-10T16:39:27.890Z,13.60
2022-09-10T16:42:00.765Z,13.50
2022-09-10T16:44:32.557Z,13.50
2022-09-10T16:47:00.220Z,13.50
2022-09-10T16:49:27.916Z,13.40
2022-09-10T16:51:56.193Z,13.30
2022-09-10T16:54:27.119Z,13.30
2022-09-10T16:56:55.270Z,13.30
2022-09-10T16:59:26.096Z,13.20
2022-09-10T17:01:54.141Z,13.10
2022-09-10T17:04:28.144Z,13.10
2022-09-10T17:06:57.855Z,13.10
2022-09-10T17:09:25.944Z,13.00
2022-09-10T17:11:53.765Z,13.00
2022-09-10T17:14:22.600Z,12.90
2022-09-10T17:16:51.124Z,12.90
2022-09-10T17:19:23.929Z,12.80
2022-09-10T17:21:53.327Z,12.80
2022-09-10T17:24:23.000Z,12.80
2022-09-10T17:26:52.503Z,12.70
2022-09-10T17:29:22.835Z,12.70
2022-09-10T17:31:55.730Z,12.70
2022-09-10T17:34:24.793Z,12.60
2022-09-10T17:36:52.569Z,12.60
2022-09-10T17:39:20.411Z,12.60
2022-09-10T17:41:48.707Z,12.60
2022-09-10T17:44:17.013Z,12.60
2022-09-10T17:46:45.366Z,12.50
2022-09-10T17:49:14.529Z,12.50
2022-09-10T17:51:42.935Z,12.40
2022-09-10T17:54:11.423Z,12.40
2022-09-10T17:56:39.414Z,12.40
2022-09-10T17:59:07.729Z,12.30
2022-09-10T18:01:40.581Z,12.30
2022-09-10T18:04:12.904Z,12.20
2022-09-10T18:06:42.678Z,12.20
2022-09-10T18:09:12.013Z,12.20
2022-09-10T18:11:42.098Z,12.10
2022-09-10T18:14:21.533Z,12.10
2022-09-10T18:16:51.919Z,12.10
2022-09-10T18:19:21.862Z,12.10
2022-09-10T18:21:51.314Z,12.10
2022-09-10T18:24:24.529Z,12.00
2022-09-10T18:26:54.993Z,12.00
2022-09-10T18:29:23.928Z,12.00
2022-09-10T18:31:56.586Z,11.90
2022-09-10T18:34:28.014Z,11.80
2022-09-10T18:37:00.566Z,11.80
2022-09-10T18:39:30.674Z,11.80
2022-09-10T18:42:01.227Z,11.70
2022-09-10T18:44:34.847Z,11.70
2022-09-10T18:47:03.769Z,11.70
2022-09-10T18:49:54.607Z,11.70
2022-09-10T18:52:38.434Z,11.70
2022-09-10T18:55:08.113Z,11.60
2022-09-10T18:57:36.931Z,11.60
2022-09-10T19:00:09.183Z,11.60
2022-09-10T19:02:44.532Z,11.60
2022-09-10T19:05:12.736Z,11.60
2022-09-10T19:07:40.659Z,11.50
2022-09-10T19:10:10.433Z,11.50
2022-09-10T19:12:39.902Z,11.40
2022-09-10T19:15:08.144Z,11.40
2022-09-10T19:17:35.949Z,11.40
2022-09-10T19:20:04.077Z,11.40
2022-09-10T19:22:31.629Z,11.30
2022-09-10T19:24:59.291Z,11.30
2022-09-10T19:27:27.078Z,11.20
2022-09-10T19:29:56.298Z,11.20
2022-09-10T19:32:23.916Z,11.30
2022-09-10T19:34:52.471Z,11.20
2022-09-10T19:37:21.151Z,11.20
2022-09-10T19:39:49.049Z,11.20
2022-09-10T19:42:17.655Z,11.20
2022-09-10T19:44:45.370Z,11.20
2022-09-10T19:47:13.099Z,11.20
2022-09-10T19:49:40.872Z,11.10
2022-09-10T19:52:08.563Z,11.00
2022-09-10T19:54:37.729Z,11.00
2022-09-10T19:57:05.590Z,10.90
2022-09-10T19:59:33.232Z,10.90
2022-09-10T20:02:01.058Z,10.80
2022-09-10T20:04:28.994Z,10.90
2022-09-10T20:06:56.576Z,10.90
2022-09-10T20:09:24.506Z,10.80
2022-09-10T20:11:52.132Z,10.80
2022-09-10T20:14:20.558Z,10.80
2022-09-10T20:16:48.203Z,10.80
2022-09-10T20:19:18.771Z,10.70
2022-09-10T20:21:48.157Z,10.70
2022-09-10T20:24:16.514Z,10.70
2022-09-10T20:26:46.795Z,10.70
2022-09-10T20:29:16.745Z,10.60
2022-09-10T20:31:46.598Z,10.60
2022-09-10T20:34:17.459Z,10.50
2022-09-10T20:36:45.491Z,10.50
2022-09-10T20:39:15.126Z,10.50
2022-09-10T20:41:43.736Z,10.50
2022-09-10T20:44:13.953Z,10.50
2022-09-10T20:46:42.647Z,10.50
2022-09-10T20:49:16.195Z,10.50
2022-09-10T20:51:45.107Z,10.40
2022-09-10T20:54:15.638Z,10.40
2022-09-10T20:56:44.134Z,10.40
2022-09-10T20:59:19.885Z,10.30
2022-09-10T21:01:51.052Z,10.30
2022-09-10T21:04:19.665Z,10.20
2022-09-10T21:06:47.458Z,10.20
2022-09-10T21:09:15.280Z,10.20
2022-09-10T21:11:43.076Z,10.20
2022-09-10T21:14:12.331Z,10.20
2022-09-10T21:16:42.633Z,10.10
2022-09-10T21:19:12.621Z,10.10
2022-09-10T21:21:41.708Z,10.10
2022-09-10T21:24:22.878Z,10.00
2022-09-10T21:26:51.081Z,10.00
2022-09-10T21:29:20.923Z,9.90
2022-09-10T21:31:50.958Z,10.00
2022-09-10T21:34:19.554Z,10.00
2022-09-10T21:36:47.309Z,9.90
2022-09-10T21:39:17.038Z,9.90
2022-09-10T21:41:50.453Z,9.90
2022-09-10T21:44:20.673Z,9.90
2022-09-10T21:46:49.840Z,9.90
2022-09-10T21:49:25.030Z,9.80
2022-09-10T21:51:52.987Z,9.80
2022-09-10T21:54:22.392Z,9.80
2022-09-10T21:56:51.445Z,9.80
2022-09-10T21:59:21.684Z,9.70
2022-09-10T22:01:49.993Z,9.70
2022-09-10T22:04:22.484Z,9.70
2022-09-10T22:06:51.265Z,9.70
2022-09-10T22:09:20.137Z,9.70
2022-09-10T22:11:51.597Z,9.60
2022-09-10T22:14:24.475Z,9.70
2022-09-10T22:16:53.222Z,9.60
2022-09-10T22:19:26.526Z,9.60
2022-09-10T22:21:55.403Z,9.60
2022-09-10T22:24:23.297Z,9.50
2022-09-10T22:26:51.343Z,9.50
2022-09-10T22:29:20.612Z,9.50
2022-09-10T22:31:49.859Z,9.40
2022-09-10T22:34:21.029Z,9.40
2022-09-10T22:36:50.016Z,9.40
2022-09-10T22:39:19.918Z,9.40
2022-09-10T22:41:49.247Z,9.40
2022-09-10T22:44:20.513Z,9.30
2022-09-10T22:46:48.589Z,9.30
2022-09-10T22:49:16.716Z,9.20
2022-09-10T22:51:44.897Z,9.20
2022-09-10T22:54:12.559Z,9.20
2022-09-10T22:56:40.845Z,9.10
2022-09-10T22:59:14.099Z,9.10
2022-09-10T23:01:43.768Z,9.10
2022-09-10T23:04:12.251Z,9.10
2022-09-10T23:06:40.777Z,9.00
2022-09-10T23:09:14.401Z,9.00
2022-09-10T23:11:43.038Z,9.00
2022-09-10T23:14:21.085Z,8.90
2022-09-10T23:16:52.093Z,8.90
2022-09-10T23:19:22.809Z,8.80
2022-09-10T23:21:55.266Z,8.70
2022-09-10T23:24:24.885Z,8.70
2022-09-10T23:26:53.664Z,8.80
2022-09-10T23:29:24.417Z,8.80
2022-09-10T23:31:55.617Z,8.80
2022-09-10T23:34:23.837Z,8.80
2022-09-10T23:36:52.810Z,8.70
2022-09-10T23:39:22.871Z,8.60
2022-09-10T23:41:52.973Z,8.60
2022-09-10T23:44:20.935Z,8.50
2022-09-10T23:46:48.761Z,8.50
2022-09-10T23:49:16.941Z,8.50
2022-09-10T23:51:44.791Z,8.50
2022-09-10T23:54:12.933Z,8.60
2022-09-10T23:56:41.027Z,8.50
2022-09-10T23:59:09.116Z,8.50
